Time;durP1;ratioP1;P1;durP2;ratioP2;P2;SDS_P1;SDS_P2;PMS_P1;PMS_P2;Temp;Humidity;BMP_temperature;BMP_pressure;BME280_temperature;BME280_humidity;BME280_pressure;Samples;Min_cycle;Max_cycle;Signal;HPM_P1;HPM_P2
2023/08/07 00:01:17;;;;;;;14.32;2.67;;;12.70;99.90;;;;;;4935473;28;87057;-81
2023/08/07 00:03:44;;;;;;;10.07;2.75;;;12.70;99.90;;;;;;4935825;28;87635;-80
2023/08/07 00:06:09;;;;;;;8.32;2.30;;;12.70;99.90;;;;;;4932693;28;87831;-80
2023/08/07 00:08:38;;;;;;;20.55;2.60;;;12.70;99.90;;;;;;4936697;28;87164;-80
2023/08/07 00:11:08;;;;;;;10.70;2.53;;;12.70;99.90;;;;;;4915164;28;89562;-81
2023/08/07 00:13:34;;;;;;;13.55;2.75;;;12.70;99.90;;;;;;4926767;28;90034;-81
2023/08/07 00:16:00;;;;;;;8.65;2.45;;;12.70;99.90;;;;;;4923903;28;87711;-81
2023/08/07 00:18:29;;;;;;;13.48;2.60;;;12.70;99.90;;;;;;4934843;28;88061;-81
2023/08/07 00:20:54;;;;;;;11.73;2.22;;;12.70;99.90;;;;;;4933972;28;87103;-80
2023/08/07 00:23:20;;;;;;;10.50;2.30;;;12.70;99.90;;;;;;4945050;28;89790;-80
2023/08/07 00:25:46;;;;;;;20.98;3.03;;;12.70;99.90;;;;;;4935916;28;87447;-81
2023/08/07 00:28:12;;;;;;;12.77;2.60;;;12.80;99.90;;;;;;4931674;28;87320;-81
2023/08/07 00:30:38;;;;;;;14.60;2.88;;;12.80;99.90;;;;;;4934504;28;87825;-80
2023/08/07 00:33:03;;;;;;;12.88;2.35;;;12.80;99.90;;;;;;4931070;28;87000;-80
2023/08/07 00:35:29;;;;;;;12.65;2.58;;;12.80;99.90;;;;;;4934476;28;88318;-80
2023/08/07 00:37:55;;;;;;;11.27;2.85;;;12.80;99.90;;;;;;4937268;28;88276;-81
2023/08/07 00:40:21;;;;;;;15.27;2.72;;;12.80;99.90;;;;;;4932084;28;87624;-80
2023/08/07 00:42:47;;;;;;;15.98;3.20;;;12.80;99.90;;;;;;4914594;28;89999;-80
2023/08/07 00:45:12;;;;;;;12.48;3.03;;;12.80;99.90;;;;;;4933159;28;87044;-80
2023/08/07 00:47:38;;;;;;;17.20;2.90;;;12.80;99.90;;;;;;4914083;28;89980;-81
2023/08/07 00:50:07;;;;;;;13.38;2.67;;;12.80;99.90;;;;;;4925454;28;90290;-80
2023/08/07 00:52:33;;;;;;;10.57;2.45;;;12.70;99.90;;;;;;4921778;28;89425;-81
2023/08/07 00:54:58;;;;;;;10.50;2.30;;;12.70;99.70;;;;;;4936029;28;87614;-81
2023/08/07 00:57:25;;;;;;;10.90;2.13;;;12.80;99.90;;;;;;4931498;28;87652;-80
2023/08/07 00:59:52;;;;;;;8.38;2.15;;;12.70;99.90;;;;;;4933069;28;88531;-80
2023/08/07 01:02:18;;;;;;;15.10;2.55;;;12.70;99.90;;;;;;4916040;28;89914;-81
2023/08/07 01:04:44;;;;;;;14.50;2.28;;;12.70;99.90;;;;;;4941099;28;86882;-81
2023/08/07 01:07:10;;;;;;;12.13;2.45;;;12.70;99.90;;;;;;4937232;28;87688;-80
2023/08/07 01:09:36;;;;;;;11.02;2.40;;;12.70;99.90;;;;;;4919727;28;89278;-81
2023/08/07 01:12:06;;;;;;;14.70;3.03;;;12.70;99.90;;;;;;4929055;28;88747;-80
2023/08/07 01:14:33;;;;;;;11.07;2.55;;;12.70;99.90;;;;;;4934583;28;87526;-81
2023/08/07 01:17:15;;;;;;;20.33;3.05;;;12.60;99.90;;;;;;4940056;28;88079;-80
2023/08/07 01:19:41;;;;;;;8.88;2.30;;;12.60;99.90;;;;;;4941772;28;89881;-81
2023/08/07 01:22:17;;;;;;;9.30;2.88;;;12.60;99.90;;;;;;4933321;28;87016;-80
2023/08/07 01:24:49;;;;;;;10.32;2.53;;;12.60;99.90;;;;;;4933177;28;88549;-80
2023/08/07 01:27:18;;;;;;;13.98;2.33;;;12.50;99.90;;;;;;4942407;28;88204;-81
2023/08/07 01:30:09;;;;;;;14.00;2.58;;;12.50;99.90;;;;;;4934737;28;91267;-80
2023/08/07 01:33:04;;;;;;;15.27;3.08;;;12.50;99.90;;;;;;4934711;28;91161;-81
2023/08/07 01:35:34;;;;;;;14.70;2.75;;;12.50;99.90;;;;;;4924573;28;87134;-81
2023/08/07 01:38:00;;;;;;;17.33;2.78;;;12.50;99.90;;;;;;4939245;28;87622;-80
2023/08/07 01:40:28;;;;;;;11.98;2.40;;;12.40;99.90;;;;;;4935558;28;88151;-80
2023/08/07 01:42:55;;;;;;;9.88;2.58;;;12.50;99.90;;;;;;4931674;28;89869;-80
2023/08/07 01:45:30;;;;;;;11.43;2.35;;;12.50;99.90;;;;;;4921664;28;87606;-80
2023/08/07 01:47:56;;;;;;;13.52;2.85;;;12.50;99.90;;;;;;4925278;28;90841;-81
2023/08/07 01:50:22;;;;;;;10.80;2.40;;;12.50;99.90;;;;;;4928603;28;90385;-81
2023/08/07 01:52:49;;;;;;;9.60;2.80;;;12.50;99.90;;;;;;4925776;28;90282;-81
2023/08/07 01:55:17;;;;;;;10.25;2.15;;;12.50;99.90;;;;;;4938537;28;87129;-80
2023/08/07 01:57:46;;;;;;;11.80;3.22;;;12.50;99.90;;;;;;4945405;28;87969;-81
2023/08/07 02:00:12;;;;;;;10.88;2.40;;;12.60;99.90;;;;;;4937612;28;88010;-80
2023/08/07 02:02:39;;;;;;;14.68;2.50;;;12.60;99.90;;;;;;4942477;28;90191;-81
2023/08/07 02:05:05;;;;;;;12.18;3.33;;;12.50;99.90;;;;;;4935496;28;87652;-81
2023/08/07 02:07:31;;;;;;;15.98;2.65;;;12.60;99.90;;;;;;4942021;28;89009;-80
2023/08/07 02:09:58;;;;;;;14.43;2.40;;;12.50;99.90;;;;;;4934598;28;87035;-80
2023/08/07 02:12:25;;;;;;;8.68;2.00;;;12.50;99.90;;;;;;4919933;28;87605;-81
2023/08/07 02:14:51;;;;;;;8.35;2.35;;;12.50;99.90;;;;;;4932386;28;88394;-80
2023/08/07 02:17:16;;;;;;;13.18;2.50;;;12.50;99.90;;;;;;4935436;28;87221;-81
2023/08/07 02:19:43;;;;;;;11.65;2.85;;;12.50;99.90;;;;;;4934941;28;86967;-81
2023/08/07 02:22:10;;;;;;;16.67;2.53;;;12.50;99.90;;;;;;4926040;28;89440;-80
2023/08/07 02:24:36;;;;;;;13.00;3.20;;;12.50;99.90;;;;;;4936326;28;87398;-80
2023/08/07 02:27:02;;;;;;;10.00;2.15;;;12.50;99.90;;;;;;4942860;28;87470;-81
2023/08/07 02:29:29;;;;;;;10.77;2.63;;;12.50;99.90;;;;;;4934834;28;87758;-81
2023/08/07 02:31:55;;;;;;;13.77;2.63;;;12.50;99.90;;;;;;4934202;28;87418;-81
2023/08/07 02:34:21;;;;;;;7.25;2.50;;;12.50;99.90;;;;;;4942603;28;87102;-80
2023/08/07 02:36:47;;;;;;;6.65;1.95;;;12.50;99.80;;;;;;4934343;28;87114;-81
2023/08/07 02:39:14;;;;;;;13.05;2.55;;;12.50;99.90;;;;;;4916676;28;91285;-80
2023/08/07 02:41:40;;;;;;;8.85;2.10;;;12.50;99.60;;;;;;4938712;28;88184;-81
2023/08/07 02:44:06;;;;;;;7.53;2.00;;;12.50;99.60;;;;;;4935012;28;87185;-81
2023/08/07 02:46:31;;;;;;;15.60;3.08;;;12.50;99.40;;;;;;4921646;28;88174;-80
2023/08/07 02:48:57;;;;;;;5.88;2.33;;;12.50;99.40;;;;;;4932326;28;88150;-80
2023/08/07 02:51:23;;;;;;;7.30;2.10;;;12.50;99.40;;;;;;4933386;28;88514;-80
2023/08/07 02:53:48;;;;;;;8.30;1.73;;;12.50;99.30;;;;;;4934213;28;87387;-80
2023/08/07 02:56:14;;;;;;;12.90;2.40;;;12.50;99.40;;;;;;4915511;28;89692;-80
2023/08/07 02:58:40;;;;;;;14.95;2.28;;;12.50;99.10;;;;;;4933471;28;90865;-81
2023/08/07 03:01:06;;;;;;;3.70;2.10;;;12.50;99.10;;;;;;4930723;28;88470;-80
2023/08/07 03:03:33;;;;;;;11.27;1.95;;;12.50;99.30;;;;;;4930601;28;88395;-80
2023/08/07 03:05:59;;;;;;;6.70;2.38;;;12.50;99.20;;;;;;4928350;28;88921;-80
2023/08/07 03:08:24;;;;;;;7.65;1.92;;;12.50;99.10;;;;;;4932645;28;87937;-81
2023/08/07 03:10:56;;;;;;;8.95;2.97;;;12.50;99.00;;;;;;4930834;28;87725;-80
2023/08/07 03:13:26;;;;;;;11.55;2.40;;;12.50;99.00;;;;;;4930128;28;87053;-81
2023/08/07 03:16:01;;;;;;;11.35;2.20;;;12.50;98.80;;;;;;4930434;28;87024;-80
2023/08/07 03:18:28;;;;;;;12.98;2.10;;;12.40;98.90;;;;;;4928874;28;88705;-80
2023/08/07 03:20:55;;;;;;;5.97;2.05;;;12.40;98.80;;;;;;4927613;28;93538;-80
2023/08/07 03:23:22;;;;;;;10.95;2.08;;;12.40;98.60;;;;;;4934479;28;87487;-80
2023/08/07 03:25:48;;;;;;;9.52;2.00;;;12.40;98.70;;;;;;4931318;28;87563;-80
2023/08/07 03:28:13;;;;;;;6.47;2.10;;;12.30;98.60;;;;;;4908821;28;92379;-80
2023/08/07 03:30:39;;;;;;;9.70;2.25;;;12.30;98.80;;;;;;4930193;28;88909;-80
2023/08/07 03:33:06;;;;;;;14.75;2.13;;;12.30;98.70;;;;;;4930047;28;87511;-80
2023/08/07 03:35:32;;;;;;;8.85;1.98;;;12.30;98.80;;;;;;4930667;28;90589;-80
2023/08/07 03:37:57;;;;;;;14.75;2.65;;;12.20;98.80;;;;;;4929432;28;88630;-81
2023/08/07 03:40:23;;;;;;;10.38;2.20;;;12.20;98.80;;;;;;4930563;28;87855;-81
2023/08/07 03:42:49;;;;;;;8.95;1.75;;;12.20;98.80;;;;;;4931309;28;87226;-80
2023/08/07 03:45:14;;;;;;;7.57;1.88;;;12.20;98.80;;;;;;4933929;28;87588;-81
2023/08/07 03:47:40;;;;;;;9.70;1.92;;;12.20;99.00;;;;;;4920952;28;90490;-81
2023/08/07 03:50:06;;;;;;;7.72;2.00;;;12.10;99.00;;;;;;4938933;28;90776;-81
2023/08/07 03:52:32;;;;;;;12.38;1.85;;;12.10;99.00;;;;;;4920579;28;88509;-81
2023/08/07 03:54:57;;;;;;;8.80;1.70;;;12.10;99.00;;;;;;4928432;28;87834;-81
2023/08/07 03:57:23;;;;;;;10.05;3.20;;;12.10;99.20;;;;;;4929347;28;87062;-81
2023/08/07 03:59:49;;;;;;;5.88;2.08;;;12.10;99.00;;;;;;4927387;28;88403;-81
2023/08/07 04:02:15;;;;;;;11.27;2.10;;;12.10;99.10;;;;;;4929682;28;87387;-81
2023/08/07 04:04:40;;;;;;;9.38;2.17;;;12.10;98.90;;;;;;4929274;28;87844;-81
2023/08/07 04:07:07;;;;;;;6.32;1.40;;;12.00;98.90;;;;;;4936427;28;89365;-81
2023/08/07 04:09:33;;;;;;;4.47;1.75;;;12.00;98.90;;;;;;4911896;28;90278;-81
2023/08/07 04:11:59;;;;;;;7.72;2.00;;;12.00;98.90;;;;;;4927517;28;87425;-81
2023/08/07 04:14:25;;;;;;;8.52;2.33;;;12.00;99.00;;;;;;4928674;28;87381;-81
2023/08/07 04:16:51;;;;;;;10.68;2.03;;;11.90;98.80;;;;;;4930260;28;88797;-81
2023/08/07 04:19:17;;;;;;;5.45;1.90;;;11.90;98.80;;;;;;4920537;28;88891;-81
2023/08/07 04:21:43;;;;;;;5.63;1.77;;;11.90;98.90;;;;;;4928955;28;87127;-81
2023/08/07 04:24:10;;;;;;;9.80;2.03;;;11.90;98.80;;;;;;4929292;28;87744;-81
2023/08/07 04:26:37;;;;;;;17.30;3.53;;;11.80;98.80;;;;;;4917754;28;91173;-81
2023/08/07 04:29:03;;;;;;;9.05;1.75;;;11.80;98.80;;;;;;4917856;28;88051;-81
2023/08/07 04:31:32;;;;;;;12.27;1.90;;;11.80;99.10;;;;;;4928677;28;86998;-81
2023/08/07 04:33:59;;;;;;;13.05;2.33;;;11.80;98.90;;;;;;4927594;28;86993;-81
2023/08/07 04:36:24;;;;;;;10.63;2.70;;;11.80;99.00;;;;;;4931301;28;89191;-81
2023/08/07 04:38:51;;;;;;;10.60;1.88;;;11.80;99.00;;;;;;4915273;28;89905;-81
2023/08/07 04:41:17;;;;;;;6.70;1.60;;;11.80;99.10;;;;;;4928323;28;88498;-81
2023/08/07 04:43:43;;;;;;;8.30;1.95;;;11.80;99.30;;;;;;4925411;28;87534;-81
2023/08/07 04:46:09;;;;;;;8.98;1.90;;;11.80;99.40;;;;;;4926889;28;87133;-81
2023/08/07 04:48:36;;;;;;;11.55;2.10;;;11.80;99.50;;;;;;4929696;28;87136;-81
2023/08/07 04:51:02;;;;;;;9.38;2.00;;;11.80;99.50;;;;;;4927956;28;87627;-81
2023/08/07 04:53:28;;;;;;;6.10;1.65;;;11.80;99.60;;;;;;4927526;28;89442;-81
2023/08/07 04:55:53;;;;;;;9.77;2.00;;;11.80;99.50;;;;;;4937435;28;90480;-81
2023/08/07 04:58:19;;;;;;;10.88;2.08;;;11.80;99.50;;;;;;4930390;28;87519;-81
2023/08/07 05:00:45;;;;;;;11.88;2.05;;;11.80;99.30;;;;;;4918537;28;87524;-81
2023/08/07 05:03:10;;;;;;;8.18;1.85;;;11.80;99.40;;;;;;4927685;28;87821;-81
2023/08/07 05:05:36;;;;;;;15.50;2.85;;;11.80;99.40;;;;;;4928686;28;89123;-81
2023/08/07 05:08:02;;;;;;;6.53;2.08;;;11.80;99.30;;;;;;4929839;28;88920;-81
2023/08/07 05:10:28;;;;;;;7.85;2.33;;;11.80;99.40;;;;;;4927919;28;87806;-81
2023/08/07 05:12:56;;;;;;;5.20;1.73;;;11.80;99.60;;;;;;4929790;28;87292;-81
2023/08/07 05:15:23;;;;;;;6.80;1.60;;;11.90;99.50;;;;;;4926897;28;90225;-81
2023/08/07 05:17:49;;;;;;;7.13;2.45;;;11.90;99.60;;;;;;4927516;28;90804;-81
2023/08/07 05:20:15;;;;;;;8.02;2.05;;;11.80;99.50;;;;;;4930949;28;87906;-81
2023/08/07 05:22:41;;;;;;;6.38;1.70;;;11.90;99.60;;;;;;4939360;28;86614;-81
2023/08/07 05:25:09;;;;;;;9.90;2.15;;;11.90;99.80;;;;;;4923261;28;89523;-81
2023/08/07 05:27:35;;;;;;;4.70;1.85;;;11.90;99.60;;;;;;4929141;28;87798;-81
2023/08/07 05:30:01;;;;;;;8.32;2.30;;;12.00;99.60;;;;;;4937054;28;88410;-80
2023/08/07 05:32:26;;;;;;;9.05;2.05;;;12.00;99.60;;;;;;4932239;28;87679;-81
2023/08/07 05:34:52;;;;;;;9.75;1.85;;;12.10;99.50;;;;;;4930362;28;87170;-81
2023/08/07 05:37:18;;;;;;;5.60;1.92;;;12.10;99.40;;;;;;4921211;28;87737;-81
2023/08/07 05:39:43;;;;;;;7.35;2.03;;;12.20;99.50;;;;;;4929920;28;93079;-81
2023/08/07 05:42:10;;;;;;;6.32;1.83;;;12.20;99.40;;;;;;4931392;28;88058;-81
2023/08/07 05:44:36;;;;;;;6.75;2.08;;;12.20;99.40;;;;;;4929368;28;87009;-81
2023/08/07 05:47:01;;;;;;;7.22;2.45;;;12.30;99.50;;;;;;4911651;28;89193;-81
2023/08/07 05:49:27;;;;;;;13.73;1.85;;;12.30;99.40;;;;;;4909029;28;87691;-81
2023/08/07 05:51:53;;;;;;;16.20;2.15;;;12.30;99.40;;;;;;4933102;28;87450;-81
2023/08/07 05:54:19;;;;;;;9.75;1.70;;;12.40;99.40;;;;;;4932012;28;88644;-81
2023/08/07 05:56:45;;;;;;;13.30;2.58;;;12.50;99.30;;;;;;4933370;28;88269;-81
2023/08/07 05:59:11;;;;;;;5.63;1.80;;;12.50;99.20;;;;;;4941880;28;87699;-81
2023/08/07 06:01:36;;;;;;;9.27;2.42;;;12.60;99.10;;;;;;4916239;28;89734;-81
2023/08/07 06:04:02;;;;;;;8.25;1.98;;;12.60;99.10;;;;;;4934235;28;87297;-81
2023/08/07 06:06:28;;;;;;;6.95;1.48;;;12.70;99.00;;;;;;4937274;28;90043;-80
2023/08/07 06:08:55;;;;;;;10.77;2.00;;;12.70;98.90;;;;;;4933569;28;88024;-81
2023/08/07 06:11:21;;;;;;;6.82;1.90;;;12.70;99.10;;;;;;4936684;28;86283;-80
2023/08/07 06:13:46;;;;;;;8.93;2.20;;;12.80;98.80;;;;;;4915916;28;90732;-81
2023/08/07 06:16:12;;;;;;;8.68;2.35;;;12.80;98.80;;;;;;4933436;28;86971;-80
2023/08/07 06:18:38;;;;;;;14.23;2.03;;;12.80;98.90;;;;;;4929502;28;88234;-80
2023/08/07 06:21:06;;;;;;;8.50;2.17;;;12.80;99.10;;;;;;4932667;28;88619;-80
2023/08/07 06:23:33;;;;;;;8.68;2.30;;;12.90;98.80;;;;;;4935638;28;91363;-80
2023/08/07 06:26:03;;;;;;;7.50;2.00;;;13.00;98.70;;;;;;4916564;28;89925;-80
2023/08/07 06:28:49;;;;;;;8.00;2.08;;;13.00;98.60;;;;;;4930912;28;86975;-80
2023/08/07 06:31:15;;;;;;;8.13;1.83;;;13.10;98.90;;;;;;4920996;28;89982;-80
2023/08/07 06:33:41;;;;;;;7.90;2.28;;;13.20;98.40;;;;;;4934524;28;88279;-80
2023/08/07 06:36:10;;;;;;;7.05;1.90;;;13.30;98.10;;;;;;4939416;28;90450;-80
2023/08/07 06:38:36;;;;;;;10.98;2.10;;;13.30;97.90;;;;;;4933992;28;87091;-80
2023/08/07 06:41:02;;;;;;;7.18;2.15;;;13.40;98.00;;;;;;4932827;28;87377;-80
2023/08/07 06:43:28;;;;;;;5.55;1.98;;;13.50;98.10;;;;;;4914112;28;90605;-79
2023/08/07 06:54:54;;;;;;;7.97;2.72;;;13.80;96.80;;;;;;5152293;22;92998;-79
2023/08/07 06:57:20;;;;;;;7.43;2.40;;;13.90;97.00;;;;;;4926275;28;89735;-80
2023/08/07 06:59:45;;;;;;;6.80;1.73;;;13.90;97.10;;;;;;4909015;28;87243;-80
2023/08/07 07:02:13;;;;;;;13.45;2.35;;;14.00;97.00;;;;;;4929894;28;91501;-79
2023/08/07 07:05:00;;;;;;;4.78;1.95;;;14.00;96.90;;;;;;4936361;28;89057;-82
2023/08/07 07:13:43;;;;;;;5.90;1.60;;;14.20;96.80;;;;;;4954045;28;86296;-81
2023/08/07 07:16:12;;;;;;;11.25;2.35;;;14.30;96.30;;;;;;4963572;28;89856;-81
2023/08/07 07:25:24;;;;;;;8.73;2.03;;;14.60;95.40;;;;;;4955381;28;86185;-81
2023/08/07 07:27:57;;;;;;;7.82;1.88;;;14.70;95.10;;;;;;4963030;28;88154;-81
2023/08/07 07:30:25;;;;;;;8.80;1.60;;;14.70;95.40;;;;;;4939389;28;88710;-81
2023/08/07 07:32:54;;;;;;;8.10;1.80;;;14.80;94.80;;;;;;4947849;28;86654;-81
2023/08/07 07:35:42;;;;;;;10.57;1.90;;;14.90;94.50;;;;;;4966031;28;89239;-81
2023/08/07 07:38:15;;;;;;;8.93;1.85;;;15.00;94.20;;;;;;4964010;28;90921;-82
2023/08/07 07:41:00;;;;;;;6.80;2.17;;;15.10;94.00;;;;;;4962590;28;87613;-81
2023/08/07 07:43:49;;;;;;;8.70;1.88;;;15.30;94.90;;;;;;4946265;28;86920;-81
2023/08/07 07:59:13;;;;;;;6.03;1.85;;;15.90;92.80;;;;;;5969224;22;90356;-80
2023/08/07 08:01:40;;;;;;;9.93;2.90;;;16.00;92.80;;;;;;4927924;28;89665;-80
2023/08/07 08:04:06;;;;;;;8.85;1.75;;;16.10;92.10;;;;;;4926713;28;88813;-79
2023/08/07 08:06:32;;;;;;;5.97;2.00;;;16.10;91.60;;;;;;4929685;28;87937;-79
2023/08/07 08:08:58;;;;;;;9.27;2.30;;;16.20;92.40;;;;;;4909937;28;90659;-79
2023/08/07 08:11:23;;;;;;;7.32;1.98;;;16.30;92.10;;;;;;4930868;28;88285;-79
2023/08/07 08:13:49;;;;;;;3.72;2.10;;;16.30;91.60;;;;;;4929626;28;87536;-79
2023/08/07 08:16:15;;;;;;;5.93;1.80;;;16.30;91.60;;;;;;4927815;28;87799;-78
2023/08/07 08:18:41;;;;;;;4.35;1.40;;;16.40;91.70;;;;;;4910559;28;92018;-79
2023/08/07 08:21:06;;;;;;;8.98;2.10;;;16.40;91.10;;;;;;4910431;28;88606;-79
2023/08/07 08:23:32;;;;;;;10.38;2.13;;;16.40;91.30;;;;;;4930744;28;87751;-80
2023/08/07 08:25:59;;;;;;;4.75;1.63;;;16.40;91.40;;;;;;4944721;28;87568;-79
2023/08/07 08:28:25;;;;;;;6.93;1.55;;;16.50;91.40;;;;;;4929362;28;88838;-79
2023/08/07 08:30:56;;;;;;;7.85;2.22;;;16.50;90.60;;;;;;4914476;28;90682;-80
2023/08/07 08:33:22;;;;;;;8.45;2.22;;;16.50;91.30;;;;;;4917141;28;87306;-78
2023/08/07 08:35:47;;;;;;;7.95;1.98;;;16.50;91.70;;;;;;4940044;28;87750;-77
2023/08/07 08:38:13;;;;;;;9.73;2.50;;;16.60;92.40;;;;;;4925693;28;88386;-77
2023/08/07 08:40:40;;;;;;;9.73;1.98;;;16.70;91.80;;;;;;4924608;28;93758;-77
2023/08/07 08:43:06;;;;;;;8.43;1.88;;;16.80;91.10;;;;;;4923661;28;87692;-77
2023/08/07 08:45:33;;;;;;;6.88;2.22;;;16.80;91.00;;;;;;4924450;28;87572;-77
2023/08/07 08:48:03;;;;;;;10.68;2.25;;;16.90;91.10;;;;;;4925296;28;88176;-77
2023/08/07 08:50:30;;;;;;;7.72;2.00;;;17.10;90.70;;;;;;4926292;28;88317;-77
2023/08/07 08:52:56;;;;;;;8.32;2.00;;;17.30;91.10;;;;;;4924944;28;88906;-79
2023/08/07 08:55:23;;;;;;;11.52;2.08;;;17.30;90.10;;;;;;4925432;28;91230;-79
2023/08/07 08:57:50;;;;;;;7.75;1.73;;;17.50;89.10;;;;;;4908254;28;89908;-79
2023/08/07 09:00:21;;;;;;;6.93;1.85;;;17.50;86.20;;;;;;4928670;28;87767;-80
2023/08/07 09:02:48;;;;;;;8.45;1.67;;;17.50;86.70;;;;;;4913796;28;87788;-80
2023/08/07 09:05:15;;;;;;;5.72;1.48;;;17.60;87.70;;;;;;4931250;28;89287;-79
2023/08/07 09:41:53;;;;;;;6.43;1.90;;;17.70;87.80;;;;;;5487379;22;88781;-81
2023/08/07 09:44:27;;;;;;;5.28;1.98;;;17.80;87.70;;;;;;4934090;28;88296;-81
2023/08/07 09:46:56;;;;;;;;;;;17.90;87.50;;;;;;4924297;28;89599;-81
2023/08/07 09:49:21;;;;;;;5.80;1.95;;;18.10;86.60;;;;;;4934017;28;90902;-81
2023/08/07 09:51:50;;;;;;;10.07;2.33;;;18.30;85.40;;;;;;4933896;28;90787;-81
2023/08/07 09:54:28;;;;;;;8.05;1.90;;;18.50;84.20;;;;;;4934000;28;87384;-81
2023/08/07 11:14:37;;;;;;;4.10;1.15;;;19.50;72.50;;;;;;4952866;28;92821;-78
2023/08/07 11:19:39;;;;;;;4.72;1.60;;;19.50;72.80;;;;;;5735559;22;87423;-78
2023/08/07 11:22:06;;;;;;;3.00;1.63;;;19.50;70.60;;;;;;5548928;22;89878;-81
2023/08/07 12:08:57;;;;;;;2.05;1.30;;;21.20;65.80;;;;;;5007849;22;87864;-79
2023/08/07 12:11:26;;;;;;;3.25;1.20;;;21.30;64.80;;;;;;4969375;28;86499;-80
2023/08/07 12:13:52;;;;;;;1.90;1.02;;;21.30;61.90;;;;;;4960194;28;90213;-80
2023/08/07 12:16:18;;;;;;;2.35;1.10;;;21.10;61.40;;;;;;4943641;28;91306;-79
2023/08/07 12:18:52;;;;;;;1.90;1.20;;;21.00;63.80;;;;;;4963022;28;88778;-80
2023/08/07 12:21:20;;;;;;;3.13;1.02;;;20.80;63.90;;;;;;4962549;28;88148;-80
2023/08/07 12:23:51;;;;;;;3.00;1.00;;;20.80;66.20;;;;;;4963994;28;88059;-79
2023/08/07 12:26:18;;;;;;;3.65;1.10;;;20.80;66.40;;;;;;4966463;28;87881;-79
2023/08/07 12:28:49;;;;;;;3.85;1.15;;;21.00;65.90;;;;;;4944954;28;87062;-81
2023/08/07 12:31:17;;;;;;;2.03;0.88;;;21.00;64.60;;;;;;4939075;28;87808;-79
2023/08/07 12:33:49;;;;;;;1.63;1.00;;;21.00;66.30;;;;;;4949081;28;87268;-80
2023/08/07 12:36:16;;;;;;;4.00;0.77;;;20.90;64.00;;;;;;4954015;28;86900;-81
2023/08/07 12:38:45;;;;;;;2.60;0.80;;;20.90;64.40;;;;;;4965042;28;88192;-81
2023/08/07 12:41:18;;;;;;;2.35;0.75;;;20.90;66.80;;;;;;4940065;28;90003;-81
2023/08/07 12:43:46;;;;;;;1.38;0.93;;;21.10;67.30;;;;;;4970870;28;89011;-80
2023/08/07 12:46:15;;;;;;;4.93;0.90;;;21.40;66.10;;;;;;4971007;28;89914;-80
2023/08/07 12:48:44;;;;;;;2.20;0.85;;;21.60;67.50;;;;;;4951474;28;87166;-81
2023/08/07 12:51:16;;;;;;;3.67;1.15;;;21.80;63.20;;;;;;4971099;28;87127;-80
2023/08/07 12:53:47;;;;;;;1.98;0.90;;;21.80;64.10;;;;;;4971851;28;88109;-81
2023/08/07 12:56:24;;;;;;;3.95;0.60;;;21.90;64.40;;;;;;4956044;28;87607;-80
2023/08/07 12:58:51;;;;;;;2.67;0.90;;;22.20;64.40;;;;;;4974045;28;87842;-80
2023/08/07 13:01:35;;;;;;;3.92;0.98;;;22.50;61.10;;;;;;4971057;28;87789;-80
2023/08/07 13:04:15;;;;;;;1.52;0.60;;;22.80;58.40;;;;;;4970866;28;87794;-80
2023/08/07 13:06:58;;;;;;;2.30;0.77;;;22.80;58.70;;;;;;5093456;22;87732;-80
2023/08/07 13:09:24;;;;;;;1.20;0.70;;;22.90;56.90;;;;;;4940622;28;88468;-80
2023/08/07 13:11:50;;;;;;;1.92;0.93;;;22.90;56.20;;;;;;4957835;28;89309;-80
2023/08/07 13:14:19;;;;;;;3.55;1.08;;;22.70;56.80;;;;;;4948177;28;90562;-81
2023/08/07 13:16:45;;;;;;;1.25;0.73;;;22.70;57.70;;;;;;5078977;22;89808;-80
2023/08/07 13:19:10;;;;;;;1.90;0.60;;;22.90;57.20;;;;;;4957085;28;87365;-81
2023/08/07 13:21:36;;;;;;;3.88;0.73;;;23.00;56.10;;;;;;4943356;28;90786;-81
2023/08/07 13:24:02;;;;;;;1.67;0.70;;;23.20;56.00;;;;;;4941046;28;91969;-81
2023/08/07 13:26:27;;;;;;;3.55;0.93;;;23.20;58.00;;;;;;4943661;28;86653;-85
2023/08/07 13:28:53;;;;;;;2.00;0.85;;;23.40;55.40;;;;;;4939128;28;87689;-80
2023/08/07 13:36:29;;;;;;;1.35;0.70;;;23.20;56.50;;;;;;5230253;22;90579;-81
2023/08/07 13:39:01;;;;;;;1.35;0.80;;;23.30;57.00;;;;;;4972326;22;88764;-81
2023/08/07 13:41:27;;;;;;;2.55;0.80;;;23.30;57.10;;;;;;4949593;28;90481;-81
2023/08/07 13:43:56;;;;;;;2.28;0.88;;;23.40;55.80;;;;;;5063025;22;91566;-81
2023/08/07 13:46:22;;;;;;;2.08;0.85;;;23.50;55.40;;;;;;4947577;28;90152;-80
2023/08/07 13:48:48;;;;;;;1.90;0.82;;;23.60;57.20;;;;;;4935943;28;87675;-83
2023/08/07 13:51:17;;;;;;;3.53;0.75;;;23.70;57.00;;;;;;4935050;28;87305;-81
2023/08/07 13:53:51;;;;;;;2.10;0.80;;;23.80;55.90;;;;;;4962765;22;90713;-81
2023/08/07 13:56:20;;;;;;;2.30;0.75;;;23.70;53.90;;;;;;4987343;22;91679;-81
2023/08/07 13:58:46;;;;;;;1.80;0.98;;;23.80;54.50;;;;;;4948966;28;88137;-82
2023/08/07 14:01:18;;;;;;;2.75;0.80;;;23.80;55.30;;;;;;5179323;22;89897;-82
2023/08/07 14:06:19;;;;;;;1.38;0.70;;;23.90;57.70;;;;;;5094093;22;87265;-84
2023/08/07 14:08:47;;;;;;;2.72;0.80;;;24.00;55.00;;;;;;4949615;28;87750;-85
2023/08/07 14:11:14;;;;;;;1.92;0.77;;;24.00;57.20;;;;;;4942811;28;87509;-81
2023/08/07 14:13:40;;;;;;;1.45;0.90;;;24.20;54.00;;;;;;4926545;28;90034;-80
2023/08/07 14:16:07;;;;;;;2.55;0.70;;;24.20;53.80;;;;;;4940678;28;91051;-81
2023/08/07 14:18:33;;;;;;;3.08;0.88;;;24.20;53.60;;;;;;4939925;28;87304;-79
2023/08/07 14:20:59;;;;;;;4.32;0.90;;;24.20;52.80;;;;;;4921841;28;90268;-78
2023/08/07 14:23:25;;;;;;;3.40;1.02;;;24.10;54.40;;;;;;4944540;28;88670;-78
2023/08/07 14:25:52;;;;;;;3.45;0.60;;;24.10;54.90;;;;;;4923245;28;90243;-79
2023/08/07 14:28:19;;;;;;;2.97;0.80;;;24.40;54.80;;;;;;4939853;28;89116;-79
2023/08/07 14:30:45;;;;;;;3.15;0.70;;;24.60;54.40;;;;;;4935793;28;87727;-79
2023/08/07 14:33:10;;;;;;;2.15;0.90;;;24.60;55.40;;;;;;4937031;28;88856;-79
2023/08/07 14:35:36;;;;;;;2.47;1.17;;;24.60;53.80;;;;;;4938442;28;88521;-78
2023/08/07 14:38:02;;;;;;;1.88;0.70;;;24.60;55.20;;;;;;4920805;28;87696;-78
2023/08/07 14:40:28;;;;;;;2.53;0.90;;;24.60;55.50;;;;;;4929821;28;89303;-78
2023/08/07 14:42:54;;;;;;;2.58;1.15;;;24.40;55.20;;;;;;4938398;28;89692;-78
2023/08/07 14:45:22;;;;;;;1.73;0.85;;;24.30;56.80;;;;;;4939326;28;88892;-78
2023/08/07 14:47:48;;;;;;;4.22;1.10;;;24.00;56.20;;;;;;4912650;28;88726;-78
2023/08/07 14:50:15;;;;;;;3.20;0.80;;;23.80;55.20;;;;;;4921709;28;90652;-78
2023/08/07 14:52:41;;;;;;;2.83;0.90;;;23.50;57.00;;;;;;4922266;28;91613;-78
2023/08/07 14:55:07;;;;;;;2.10;0.77;;;23.50;56.70;;;;;;4937000;28;87904;-78
2023/08/07 14:57:33;;;;;;;3.70;0.73;;;23.60;56.70;;;;;;4943394;28;87689;-79
2023/08/07 14:59:58;;;;;;;3.03;0.88;;;23.60;56.10;;;;;;4943843;28;87965;-79
2023/08/07 15:02:24;;;;;;;2.80;0.82;;;23.60;57.80;;;;;;4945488;28;87788;-78
2023/08/07 15:04:50;;;;;;;3.10;0.80;;;23.70;58.40;;;;;;4938178;28;87410;-78
2023/08/07 15:07:16;;;;;;;2.97;0.90;;;23.70;56.40;;;;;;4937030;28;87835;-79
2023/08/07 15:09:41;;;;;;;1.48;0.90;;;23.60;58.20;;;;;;4937805;28;87827;-78
2023/08/07 15:12:08;;;;;;;1.67;1.00;;;23.70;59.10;;;;;;4919612;28;93099;-79
2023/08/07 15:14:34;;;;;;;1.75;1.13;;;23.60;58.40;;;;;;4941023;28;90852;-79
2023/08/07 15:16:59;;;;;;;1.45;0.90;;;23.60;60.00;;;;;;4941956;28;87445;-78
2023/08/07 15:19:25;;;;;;;3.25;1.08;;;23.60;57.90;;;;;;4937257;28;88984;-79
2023/08/07 15:21:51;;;;;;;2.45;0.90;;;23.50;57.70;;;;;;4940500;28;89330;-79
2023/08/07 15:24:20;;;;;;;3.28;0.95;;;23.30;58.50;;;;;;4938811;28;90157;-80
2023/08/07 15:26:53;;;;;;;2.38;1.10;;;23.20;60.20;;;;;;4954370;28;86736;-81
2023/08/07 15:29:48;;;;;;;2.20;0.80;;;23.10;58.10;;;;;;4944150;28;88877;-80
2023/08/07 15:32:19;;;;;;;5.90;1.10;;;23.00;59.40;;;;;;4903893;28;92376;-81
2023/08/07 15:35:11;;;;;;;1.25;0.90;;;22.80;60.50;;;;;;4946725;28;89214;-81
2023/08/07 15:40:32;;;;;;;3.15;0.60;;;22.70;60.00;;;;;;6119708;22;89079;-80
2023/08/07 15:42:58;;;;;;;1.63;0.60;;;22.50;59.30;;;;;;4919447;28;90803;-81
2023/08/07 15:45:26;;;;;;;2.25;0.60;;;22.20;60.00;;;;;;4921050;28;89639;-80
2023/08/07 15:47:52;;;;;;;1.77;0.70;;;22.20;61.60;;;;;;4929578;28;86960;-80
2023/08/07 15:50:18;;;;;;;1.80;0.63;;;22.20;61.50;;;;;;4936206;28;90438;-81
2023/08/07 15:52:45;;;;;;;1.63;0.57;;;22.30;61.60;;;;;;4918660;28;91853;-81
2023/08/07 15:55:15;;;;;;;1.77;1.08;;;22.40;60.00;;;;;;4912281;28;90712;-81
2023/08/07 15:57:48;;;;;;;2.67;0.60;;;22.50;59.30;;;;;;4920042;28;87065;-81
2023/08/07 16:00:15;;;;;;;1.33;0.50;;;22.50;59.70;;;;;;4929017;28;88228;-81
2023/08/07 16:02:41;;;;;;;1.02;0.55;;;22.50;59.40;;;;;;4924097;28;90504;-76
2023/08/07 16:05:07;;;;;;;1.48;0.68;;;22.50;59.10;;;;;;4916476;28;89894;-76
2023/08/07 16:07:33;;;;;;;1.60;0.50;;;22.50;58.40;;;;;;4919630;28;87434;-76
2023/08/07 16:09:58;;;;;;;0.70;0.43;;;22.50;58.20;;;;;;4920148;28;87759;-76